sensor_id;sensor_type;location;lat;lon;timestamp;pressure;altitude;pressure_sealevel;temperature;humidity
28354;BME280;15603;50.878;8.036;2023-08-31T00:02:15;144163.13;;;3.80;100.00
28354;BME280;15603;50.878;8.036;2023-08-31T00:04:42;144203.06;;;3.97;100.00
28354;BME280;15603;50.878;8.036;2023-08-31T00:07:10;144220.00;;;4.04;100.00
28354;BME280;15603;50.878;8.036;2023-08-31T00:09:37;144189.75;;;3.91;100.00
28354;BME280;15603;50.878;8.036;2023-08-31T00:12:04;144227.22;;;4.07;100.00
28354;BME280;15603;50.878;8.036;2023-08-31T00:14:32;144217.56;;;4.03;100.00
28354;BME280;15603;50.878;8.036;2023-08-31T00:16:59;144184.91;;;3.89;100.00
28354;BME280;15603;50.878;8.036;2023-08-31T00:19:26;144201.84;;;3.97;100.00
28354;BME280;15603;50.878;8.036;2023-08-31T00:21:53;144199.41;;;3.96;100.00
28354;BME280;15603;50.878;8.036;2023-08-31T00:24:20;144194.56;;;3.93;100.00
28354;BME280;15603;50.878;8.036;2023-08-31T00:26:58;144183.72;;;3.89;100.00
28354;BME280;15603;50.878;8.036;2023-08-31T00:29:25;144220.00;;;4.04;100.00
28354;BME280;15603;50.878;8.036;2023-08-31T00:31:52;144217.56;;;4.03;100.00
28354;BME280;15603;50.878;8.036;2023-08-31T00:34:20;144217.56;;;4.03;100.00
28354;BME280;15603;50.878;8.036;2023-08-31T00:36:47;144206.69;;;3.99;100.00
28354;BME280;15603;50.878;8.036;2023-08-31T00:39:15;144188.53;;;3.91;100.00
28354;BME280;15603;50.878;8.036;2023-08-31T00:41:47;144164.31;;;3.81;100.00
28354;BME280;15603;50.878;8.036;2023-08-31T00:44:14;144154.66;;;3.77;100.00
28354;BME280;15603;50.878;8.036;2023-08-31T00:46:47;144135.31;;;3.68;100.00
28354;BME280;15603;50.878;8.036;2023-08-31T00:49:14;144140.16;;;3.70;100.00
28354;BME280;15603;50.878;8.036;2023-08-31T00:51:43;144120.81;;;3.62;100.00
28354;BME280;15603;50.878;8.036;2023-08-31T00:54:17;144123.22;;;3.63;100.00
28354;BME280;15603;50.878;8.036;2023-08-31T00:56:44;144149.81;;;3.74;100.00
28354;BME280;15603;50.878;8.036;2023-08-31T00:59:12;144161.94;;;3.80;100.00
28354;BME280;15603;50.878;8.036;2023-08-31T01:02:22;144167.97;;;3.82;100.00
28354;BME280;15603;50.878;8.036;2023-08-31T01:10:34;144213.91;;;4.02;100.00
28354;BME280;15603;50.878;8.036;2023-08-31T01:13:07;144220.00;;;4.04;100.00
28354;BME280;15603;50.878;8.036;2023-08-31T01:15:46;144222.41;;;4.05;100.00
28354;BME280;15603;50.878;8.036;2023-08-31T01:18:16;144218.75;;;4.04;100.00
28354;BME280;15603;50.878;8.036;2023-08-31T01:21:01;144195.78;;;3.94;100.00
28354;BME280;15603;50.878;8.036;2023-08-31T01:23:52;144186.09;;;3.90;100.00
28354;BME280;15603;50.878;8.036;2023-08-31T01:26:23;144117.19;;;3.61;100.00
28354;BME280;15603;50.878;8.036;2023-08-31T01:28:51;144209.09;;;4.00;100.00
28354;BME280;15603;50.878;8.036;2023-08-31T01:31:18;144253.84;;;4.19;100.00
28354;BME280;15603;50.878;8.036;2023-08-31T01:33:47;144213.91;;;4.02;100.00
28354;BME280;15603;50.878;8.036;2023-08-31T01:36:24;144273.19;;;4.27;100.00
28354;BME280;15603;50.878;8.036;2023-08-31T01:39:01;144263.53;;;4.23;100.00
28354;BME280;15603;50.878;8.036;2023-08-31T01:41:34;144261.13;;;4.22;100.00
28354;BME280;15603;50.878;8.036;2023-08-31T01:44:02;144279.28;;;4.29;100.00
28354;BME280;15603;50.878;8.036;2023-08-31T01:46:30;144171.59;;;3.84;100.00
28354;BME280;15603;50.878;8.036;2023-08-31T01:48:59;144287.75;;;4.33;100.00
28354;BME280;15603;50.878;8.036;2023-08-31T01:51:26;144275.63;;;4.28;100.00
28354;BME280;15603;50.878;8.036;2023-08-31T01:53:53;144265.97;;;4.24;100.00
28354;BME280;15603;50.878;8.036;2023-08-31T01:56:20;144246.56;;;4.16;100.00
28354;BME280;15603;50.878;8.036;2023-08-31T01:58:48;144232.06;;;4.09;100.00
28354;BME280;15603;50.878;8.036;2023-08-31T02:01:15;144302.25;;;4.39;100.00
28354;BME280;15603;50.878;8.036;2023-08-31T02:03:44;144298.63;;;4.38;100.00
28354;BME280;15603;50.878;8.036;2023-08-31T02:06:12;144311.94;;;4.43;100.00
28354;BME280;15603;50.878;8.036;2023-08-31T02:08:39;144290.16;;;4.34;100.00
28354;BME280;15603;50.878;8.036;2023-08-31T02:11:06;144309.50;;;4.42;100.00
28354;BME280;15603;50.878;8.036;2023-08-31T02:13:33;144309.50;;;4.42;100.00
28354;BME280;15603;50.878;8.036;2023-08-31T02:16:00;144308.28;;;4.42;100.00
28354;BME280;15603;50.878;8.036;2023-08-31T02:18:27;144310.75;;;4.43;100.00
28354;BME280;15603;50.878;8.036;2023-08-31T02:20:54;144200.63;;;3.96;100.00
28354;BME280;15603;50.878;8.036;2023-08-31T02:23:22;144316.78;;;4.45;100.00
28354;BME280;15603;50.878;8.036;2023-08-31T02:25:49;144282.88;;;4.31;100.00
28354;BME280;15603;50.878;8.036;2023-08-31T02:28:16;144303.47;;;4.40;100.00
28354;BME280;15603;50.878;8.036;2023-08-31T02:30:45;144328.88;;;4.50;100.00
28354;BME280;15603;50.878;8.036;2023-08-31T02:33:13;144316.78;;;4.45;100.00
28354;BME280;15603;50.878;8.036;2023-08-31T02:35:40;144355.47;;;4.62;100.00
28354;BME280;15603;50.878;8.036;2023-08-31T02:38:07;144368.78;;;4.67;100.00
28354;BME280;15603;50.878;8.036;2023-08-31T02:40:34;144343.41;;;4.57;100.00
28354;BME280;15603;50.878;8.036;2023-08-31T02:43:01;144344.59;;;4.57;100.00
28354;BME280;15603;50.878;8.036;2023-08-31T02:45:29;144325.25;;;4.49;100.00
28354;BME280;15603;50.878;8.036;2023-08-31T02:47:57;144316.78;;;4.45;100.00
28354;BME280;15603;50.878;8.036;2023-08-31T02:50:25;144344.59;;;4.57;100.00
28354;BME280;15603;50.878;8.036;2023-08-31T02:52:52;144343.41;;;4.57;100.00
28354;BME280;15603;50.878;8.036;2023-08-31T02:55:19;144234.50;;;4.10;100.00
28354;BME280;15603;50.878;8.036;2023-08-31T02:57:46;144327.66;;;4.50;100.00
28354;BME280;15603;50.878;8.036;2023-08-31T03:00:13;144303.47;;;4.40;100.00
28354;BME280;15603;50.878;8.036;2023-08-31T03:02:42;144212.72;;;4.01;100.00
28354;BME280;15603;50.878;8.036;2023-08-31T03:05:10;144307.09;;;4.41;100.00
28354;BME280;15603;50.878;8.036;2023-08-31T03:07:37;144302.25;;;4.39;100.00
28354;BME280;15603;50.878;8.036;2023-08-31T03:10:06;144209.09;;;4.00;100.00
28354;BME280;15603;50.878;8.036;2023-08-31T03:12:33;144280.47;;;4.30;100.00
28354;BME280;15603;50.878;8.036;2023-08-31T03:15:00;144232.06;;;4.09;100.00
28354;BME280;15603;50.878;8.036;2023-08-31T03:17:27;144194.56;;;3.93;100.00
28354;BME280;15603;50.878;8.036;2023-08-31T03:19:54;144265.97;;;4.24;100.00
28354;BME280;15603;50.878;8.036;2023-08-31T03:22:21;144270.81;;;4.26;100.00
28354;BME280;15603;50.878;8.036;2023-08-31T03:24:49;144261.13;;;4.22;100.00
28354;BME280;15603;50.878;8.036;2023-08-31T03:27:16;144253.84;;;4.19;100.00
28354;BME280;15603;50.878;8.036;2023-08-31T03:29:43;144216.38;;;4.03;100.00
28354;BME280;15603;50.878;8.036;2023-08-31T03:32:11;144205.44;;;3.98;100.00
28354;BME280;15603;50.878;8.036;2023-08-31T03:34:38;144207.88;;;3.99;100.00
28354;BME280;15603;50.878;8.036;2023-08-31T03:37:05;144172.81;;;3.84;100.00
28354;BME280;15603;50.878;8.036;2023-08-31T03:39:33;144198.22;;;3.95;100.00
28354;BME280;15603;50.878;8.036;2023-08-31T03:42:01;144204.25;;;3.98;100.00
28354;BME280;15603;50.878;8.036;2023-08-31T03:44:29;144240.53;;;4.13;100.00
28354;BME280;15603;50.878;8.036;2023-08-31T03:46:56;144249.00;;;4.17;100.00
28354;BME280;15603;50.878;8.036;2023-08-31T03:49:23;144241.72;;;4.13;100.00
28354;BME280;15603;50.878;8.036;2023-08-31T03:51:50;144244.19;;;4.15;100.00
28354;BME280;15603;50.878;8.036;2023-08-31T03:54:20;144252.66;;;4.18;100.00
28354;BME280;15603;50.878;8.036;2023-08-31T03:56:47;144269.59;;;4.25;100.00
28354;BME280;15603;50.878;8.036;2023-08-31T03:59:16;144255.03;;;4.19;100.00
28354;BME280;15603;50.878;8.036;2023-08-31T04:01:43;144262.31;;;4.22;100.00
28354;BME280;15603;50.878;8.036;2023-08-31T04:04:11;144278.03;;;4.29;100.00
28354;BME280;15603;50.878;8.036;2023-08-31T04:06:38;144294.97;;;4.36;100.00
28354;BME280;15603;50.878;8.036;2023-08-31T04:09:06;144292.59;;;4.35;100.00
28354;BME280;15603;50.878;8.036;2023-08-31T04:11:33;144307.09;;;4.41;100.00
28354;BME280;15603;50.878;8.036;2023-08-31T04:14:00;144298.63;;;4.38;100.00
28354;BME280;15603;50.878;8.036;2023-08-31T04:16:29;144302.25;;;4.39;100.00
28354;BME280;15603;50.878;8.036;2023-08-31T04:18:56;144290.16;;;4.34;100.00
28354;BME280;15603;50.878;8.036;2023-08-31T04:21:23;144315.56;;;4.45;100.00
28354;BME280;15603;50.878;8.036;2023-08-31T04:23:50;144311.94;;;4.43;100.00
28354;BME280;15603;50.878;8.036;2023-08-31T04:26:17;144319.16;;;4.46;100.00
28354;BME280;15603;50.878;8.036;2023-08-31T04:28:44;144311.94;;;4.43;100.00
28354;BME280;15603;50.878;8.036;2023-08-31T04:31:12;144316.78;;;4.45;100.00
28354;BME280;15603;50.878;8.036;2023-08-31T04:33:39;144326.44;;;4.49;100.00
28354;BME280;15603;50.878;8.036;2023-08-31T04:36:07;144302.25;;;4.39;100.00
28354;BME280;15603;50.878;8.036;2023-08-31T04:38:34;144278.03;;;4.29;100.00
28354;BME280;15603;50.878;8.036;2023-08-31T04:41:01;144259.88;;;4.21;100.00
28354;BME280;15603;50.878;8.036;2023-08-31T04:43:29;144311.94;;;4.43;100.00
28354;BME280;15603;50.878;8.036;2023-08-31T04:45:56;144310.75;;;4.43;100.00
28354;BME280;15603;50.878;8.036;2023-08-31T04:48:24;144297.44;;;4.37;100.00
28354;BME280;15603;50.878;8.036;2023-08-31T04:50:56;144324.06;;;4.48;100.00
28354;BME280;15603;50.878;8.036;2023-08-31T04:53:24;144316.78;;;4.45;100.00
28354;BME280;15603;50.878;8.036;2023-08-31T04:55:51;144320.41;;;4.47;100.00
28354;BME280;15603;50.878;8.036;2023-08-31T04:58:18;144321.59;;;4.47;100.00
28354;BME280;15603;50.878;8.036;2023-08-31T05:00:45;144299.81;;;4.38;100.00
28354;BME280;15603;50.878;8.036;2023-08-31T05:03:14;144326.44;;;4.49;100.00
28354;BME280;15603;50.878;8.036;2023-08-31T05:05:42;144334.91;;;4.53;100.00
28354;BME280;15603;50.878;8.036;2023-08-31T05:08:09;144356.72;;;4.62;100.00
28354;BME280;15603;50.878;8.036;2023-08-31T05:10:37;144297.44;;;4.37;100.00
28354;BME280;15603;50.878;8.036;2023-08-31T05:13:04;144278.03;;;4.29;100.00
28354;BME280;15603;50.878;8.036;2023-08-31T05:15:31;144328.88;;;4.50;100.00
28354;BME280;15603;50.878;8.036;2023-08-31T05:18:00;144331.28;;;4.51;100.00
28354;BME280;15603;50.878;8.036;2023-08-31T05:20:27;144347.03;;;4.58;100.00
28354;BME280;15603;50.878;8.036;2023-08-31T05:22:54;144303.47;;;4.40;100.00
28354;BME280;15603;50.878;8.036;2023-08-31T05:25:21;144316.78;;;4.45;100.00
28354;BME280;15603;50.878;8.036;2023-08-31T05:27:49;144328.88;;;4.50;100.00
28354;BME280;15603;50.878;8.036;2023-08-31T05:30:16;144391.78;;;4.77;100.00
28354;BME280;15603;50.878;8.036;2023-08-31T05:32:43;144397.84;;;4.80;100.00
28354;BME280;15603;50.878;8.036;2023-08-31T05:35:10;144288.94;;;4.33;100.00
28354;BME280;15603;50.878;8.036;2023-08-31T05:37:37;144411.19;;;4.85;100.00
28354;BME280;15603;50.878;8.036;2023-08-31T05:40:05;144425.69;;;4.91;100.00
28354;BME280;15603;50.878;8.036;2023-08-31T05:42:37;144418.41;;;4.88;100.00
28354;BME280;15603;50.878;8.036;2023-08-31T05:45:04;144382.09;;;4.73;100.00
28354;BME280;15603;50.878;8.036;2023-08-31T05:47:31;144430.53;;;4.94;100.00
28354;BME280;15603;50.878;8.036;2023-08-31T05:49:59;144362.75;;;4.65;100.00
28354;BME280;15603;50.878;8.036;2023-08-31T05:52:26;144408.72;;;4.84;100.00
28354;BME280;15603;50.878;8.036;2023-08-31T05:54:53;144350.63;;;4.60;100.00
28354;BME280;15603;50.878;8.036;2023-08-31T05:57:21;144362.75;;;4.65;100.00
28354;BME280;15603;50.878;8.036;2023-08-31T05:59:49;144382.09;;;4.73;100.00
28354;BME280;15603;50.878;8.036;2023-08-31T06:02:16;144475.31;;;5.13;100.00
28354;BME280;15603;50.878;8.036;2023-08-31T06:04:43;144492.28;;;5.20;100.00
28354;BME280;15603;50.878;8.036;2023-08-31T06:07:11;144491.03;;;5.19;100.00
28354;BME280;15603;50.878;8.036;2023-08-31T06:09:38;144552.81;;;5.45;100.00
28354;BME280;15603;50.878;8.036;2023-08-31T06:12:06;144514.06;;;5.29;100.00
28354;BME280;15603;50.878;8.036;2023-08-31T06:14:33;144547.97;;;5.43;100.00
28354;BME280;15603;50.878;8.036;2023-08-31T06:17:00;144491.03;;;5.19;100.00
28354;BME280;15603;50.878;8.036;2023-08-31T06:19:27;144561.31;;;5.49;100.00
28354;BME280;15603;50.878;8.036;2023-08-31T06:21:54;144554.00;;;5.46;100.00
28354;BME280;15603;50.878;8.036;2023-08-31T06:24:21;144573.38;;;5.54;100.00
28354;BME280;15603;50.878;8.036;2023-08-31T06:26:48;144558.84;;;5.48;100.00
28354;BME280;15603;50.878;8.036;2023-08-31T06:29:15;144597.63;;;5.64;100.00
28354;BME280;15603;50.878;8.036;2023-08-31T06:31:43;144590.34;;;5.61;100.00
28354;BME280;15603;50.878;8.036;2023-08-31T06:34:10;144566.13;;;5.51;100.00
28354;BME280;15603;50.878;8.036;2023-08-31T06:36:37;144627.88;;;5.77;100.00
28354;BME280;15603;50.878;8.036;2023-08-31T06:39:05;144612.16;;;5.70;100.00
28354;BME280;15603;50.878;8.036;2023-08-31T06:41:33;144580.66;;;5.57;100.00
28354;BME280;15603;50.878;8.036;2023-08-31T06:44:01;144655.78;;;5.89;100.00
28354;BME280;15603;50.878;8.036;2023-08-31T06:46:29;144667.88;;;5.94;100.00
28354;BME280;15603;50.878;8.036;2023-08-31T06:48:56;144738.19;;;6.24;100.00
28354;BME280;15603;50.878;8.036;2023-08-31T06:51:24;144729.72;;;6.20;100.00
28354;BME280;15603;50.878;8.036;2023-08-31T06:53:51;144743.03;;;6.26;100.00
28354;BME280;15603;50.878;8.036;2023-08-31T06:56:19;144749.09;;;6.28;100.00
28354;BME280;15603;50.878;8.036;2023-08-31T06:58:46;144753.94;;;6.31;100.00
28354;BME280;15603;50.878;8.036;2023-08-31T07:01:13;144778.16;;;6.41;100.00
28354;BME280;15603;50.878;8.036;2023-08-31T07:03:40;144715.19;;;6.14;100.00
28354;BME280;15603;50.878;8.036;2023-08-31T07:06:07;144772.09;;;6.38;100.00
28354;BME280;15603;50.878;8.036;2023-08-31T07:08:34;144756.38;;;6.32;100.00
28354;BME280;15603;50.878;8.036;2023-08-31T07:11:03;144726.06;;;6.19;100.00
28354;BME280;15603;50.878;8.036;2023-08-31T07:13:31;144810.91;;;6.55;100.00
28354;BME280;15603;50.878;8.036;2023-08-31T07:15:58;144791.47;;;6.46;100.00
28354;BME280;15603;50.878;8.036;2023-08-31T07:18:25;144844.81;;;6.69;100.00
28354;BME280;15603;50.878;8.036;2023-08-31T07:20:52;144832.69;;;6.64;100.00
28354;BME280;15603;50.878;8.036;2023-08-31T07:23:19;144847.28;;;6.70;100.00
28354;BME280;15603;50.878;8.036;2023-08-31T07:25:47;144816.97;;;6.57;100.00
28354;BME280;15603;50.878;8.036;2023-08-31T07:28:14;144898.16;;;6.92;100.00
28354;BME280;15603;50.878;8.036;2023-08-31T07:30:41;144917.56;;;7.00;100.00
28354;BME280;15603;50.878;8.036;2023-08-31T07:33:08;144932.09;;;7.06;100.00
28354;BME280;15603;50.878;8.036;2023-08-31T07:35:56;144887.22;;;6.87;100.00
28354;BME280;15603;50.878;8.036;2023-08-31T07:38:25;144990.31;;;7.31;100.00
28354;BME280;15603;50.878;8.036;2023-08-31T07:40:53;144985.47;;;7.28;100.00
28354;BME280;15603;50.878;8.036;2023-08-31T07:43:20;144939.38;;;7.09;100.00
28354;BME280;15603;50.878;8.036;2023-08-31T07:45:48;145007.28;;;7.38;100.00
28354;BME280;15603;50.878;8.036;2023-08-31T07:48:15;144989.09;;;7.30;100.00
28354;BME280;15603;50.878;8.036;2023-08-31T07:50:43;144944.22;;;7.11;100.00
28354;BME280;15603;50.878;8.036;2023-08-31T07:53:11;144963.63;;;7.19;100.00
28354;BME280;15603;50.878;8.036;2023-08-31T07:55:39;144953.94;;;7.15;100.00
28354;BME280;15603;50.878;8.036;2023-08-31T07:58:06;144970.91;;;7.22;100.00
28354;BME280;15603;50.878;8.036;2023-08-31T08:00:33;145038.81;;;7.51;100.00
28354;BME280;15603;50.878;8.036;2023-08-31T08:03:01;145043.69;;;7.53;100.00
28354;BME280;15603;50.878;8.036;2023-08-31T08:05:28;145018.19;;;7.42;100.00
28354;BME280;15603;50.878;8.036;2023-08-31T08:07:55;144958.78;;;7.17;100.00
28354;BME280;15603;50.878;8.036;2023-08-31T08:10:22;144980.59;;;7.26;100.00
28354;BME280;15603;50.878;8.036;2023-08-31T08:12:49;144975.75;;;7.24;100.00
28354;BME280;15603;50.878;8.036;2023-08-31T08:15:16;144953.94;;;7.15;100.00
28354;BME280;15603;50.878;8.036;2023-08-31T08:17:44;144997.59;;;7.34;100.00
28354;BME280;15603;50.878;8.036;2023-08-31T08:20:11;145006.09;;;7.37;100.00
28354;BME280;15603;50.878;8.036;2023-08-31T08:22:38;145116.44;;;7.84;100.00
28354;BME280;15603;50.878;8.036;2023-08-31T08:25:06;145041.22;;;7.52;99.05
28354;BME280;15603;50.878;8.036;2023-08-31T08:27:36;145070.38;;;7.64;100.00
28354;BME280;15603;50.878;8.036;2023-08-31T08:30:04;145128.59;;;7.89;98.65
28354;BME280;15603;50.878;8.036;2023-08-31T08:32:33;145101.91;;;7.78;96.89
28354;BME280;15603;50.878;8.036;2023-08-31T08:35:01;145066.72;;;7.63;96.49
28354;BME280;15603;50.878;8.036;2023-08-31T08:37:28;145026.69;;;7.46;100.00
28354;BME280;15603;50.878;8.036;2023-08-31T08:39:56;145109.16;;;7.81;96.22
28354;BME280;15603;50.878;8.036;2023-08-31T08:42:24;145078.88;;;7.68;96.97
28354;BME280;15603;50.878;8.036;2023-08-31T08:44:52;145169.84;;;8.06;97.40
28354;BME280;15603;50.878;8.036;2023-08-31T08:47:19;145123.69;;;7.87;94.48
28354;BME280;15603;50.878;8.036;2023-08-31T08:49:47;145114.00;;;7.83;95.21
28354;BME280;15603;50.878;8.036;2023-08-31T08:52:15;145116.44;;;7.84;93.61
28354;BME280;15603;50.878;8.036;2023-08-31T08:54:42;145094.59;;;7.75;95.19
28354;BME280;15603;50.878;8.036;2023-08-31T08:57:09;145067.91;;;7.63;94.19
28354;BME280;15603;50.878;8.036;2023-08-31T08:59:36;145105.50;;;7.79;92.32
28354;BME280;15603;50.878;8.036;2023-08-31T09:02:04;145149.19;;;7.98;95.04
28354;BME280;15603;50.878;8.036;2023-08-31T09:04:32;145128.59;;;7.89;92.10
28354;BME280;15603;50.878;8.036;2023-08-31T09:06:59;145240.19;;;8.36;94.78
28354;BME280;15603;50.878;8.036;2023-08-31T09:09:27;145274.25;;;8.51;92.20
28354;BME280;15603;50.878;8.036;2023-08-31T09:11:54;145319.13;;;8.70;88.69
28354;BME280;15603;50.878;8.036;2023-08-31T09:14:22;145308.22;;;8.65;86.36
28354;BME280;15603;50.878;8.036;2023-08-31T09:16:51;145371.34;;;8.92;86.65
28354;BME280;15603;50.878;8.036;2023-08-31T09:19:22;145300.91;;;8.62;87.59
28354;BME280;15603;50.878;8.036;2023-08-31T09:21:52;145228.06;;;8.31;87.69
28354;BME280;15603;50.878;8.036;2023-08-31T09:24:19;145225.66;;;8.30;91.83
28354;BME280;15603;50.878;8.036;2023-08-31T09:26:48;145300.91;;;8.62;92.91
28354;BME280;15603;50.878;8.036;2023-08-31T09:29:17;145364.03;;;8.89;94.29
28354;BME280;15603;50.878;8.036;2023-08-31T09:31:44;145347.09;;;8.81;89.52
28354;BME280;15603;50.878;8.036;2023-08-31T09:34:16;145497.63;;;9.45;87.56
28354;BME280;15603;50.878;8.036;2023-08-31T09:36:43;145606.97;;;9.91;85.95
28354;BME280;15603;50.878;8.036;2023-08-31T09:39:13;145605.72;;;9.91;88.27
28354;BME280;15603;50.878;8.036;2023-08-31T09:41:56;145650.66;;;10.10;86.32
28354;BME280;15603;50.878;8.036;2023-08-31T09:44:23;145689.56;;;10.26;85.36
28354;BME280;15603;50.878;8.036;2023-08-31T09:46:50;145664.03;;;10.15;86.30
28354;BME280;15603;50.878;8.036;2023-08-31T09:49:20;145703.00;;;10.32;88.31
28354;BME280;15603;50.878;8.036;2023-08-31T09:51:49;145745.50;;;10.50;77.82
28354;BME280;15603;50.878;8.036;2023-08-31T09:54:18;145802.63;;;10.74;78.85
28354;BME280;15603;50.878;8.036;2023-08-31T09:56:46;145845.19;;;10.92;80.04
28354;BME280;15603;50.878;8.036;2023-08-31T09:59:15;145918.16;;;11.23;79.49
28354;BME280;15603;50.878;8.036;2023-08-31T10:01:45;145769.81;;;10.60;78.97
28354;BME280;15603;50.878;8.036;2023-08-31T10:04:13;145681.06;;;10.22;80.07
28354;BME280;15603;50.878;8.036;2023-08-31T10:06:42;145673.75;;;10.19;78.58
28354;BME280;15603;50.878;8.036;2023-08-31T10:09:09;145587.50;;;9.83;75.73
28354;BME280;15603;50.878;8.036;2023-08-31T10:11:38;145745.50;;;10.50;84.30
28354;BME280;15603;50.878;8.036;2023-08-31T10:14:07;145724.84;;;10.41;72.30
28354;BME280;15603;50.878;8.036;2023-08-31T10:16:36;145695.63;;;10.29;71.18
28354;BME280;15603;50.878;8.036;2023-08-31T10:19:08;145568.06;;;9.75;79.55
28354;BME280;15603;50.878;8.036;2023-08-31T10:21:35;145645.81;;;10.08;82.35
28354;BME280;15603;50.878;8.036;2023-08-31T10:24:02;145762.53;;;10.57;77.17
28354;BME280;15603;50.878;8.036;2023-08-31T10:26:31;145910.84;;;11.19;74.87
28354;BME280;15603;50.878;8.036;2023-08-31T10:28:59;145923.00;;;11.25;72.83
28354;BME280;15603;50.878;8.036;2023-08-31T10:31:31;145865.84;;;11.00;71.25
28354;BME280;15603;50.878;8.036;2023-08-31T10:34:05;145808.72;;;10.76;75.39
28354;BME280;15603;50.878;8.036;2023-08-31T10:36:42;145842.75;;;10.91;75.12
28354;BME280;15603;50.878;8.036;2023-08-31T10:39:16;145791.69;;;10.69;74.31
28354;BME280;15603;50.878;8.036;2023-08-31T10:41:55;145730.94;;;10.44;77.34
28354;BME280;15603;50.878;8.036;2023-08-31T10:44:26;145677.41;;;10.21;80.58
28354;BME280;15603;50.878;8.036;2023-08-31T10:46:54;145655.53;;;10.12;85.71
28354;BME280;15603;50.878;8.036;2023-08-31T10:49:23;145781.97;;;10.65;85.92
28354;BME280;15603;50.878;8.036;2023-08-31T10:51:54;145892.59;;;11.12;83.49
28354;BME280;15603;50.878;8.036;2023-08-31T10:57:01;145981.38;;;11.49;77.73
28354;BME280;15603;50.878;8.036;2023-08-31T11:02:28;145875.56;;;11.05;78.11
28354;BME280;15603;50.878;8.036;2023-08-31T11:07:27;145947.31;;;11.35;79.07
28354;BME280;15603;50.878;8.036;2023-08-31T11:12:43;145853.72;;;10.95;75.57
28354;BME280;15603;50.878;8.036;2023-08-31T11:15:12;145824.50;;;10.83;73.56
28354;BME280;15603;50.878;8.036;2023-08-31T11:17:42;145833.03;;;10.87;72.97
28354;BME280;15603;50.878;8.036;2023-08-31T11:20:14;145860.97;;;10.98;74.67
28354;BME280;15603;50.878;8.036;2023-08-31T11:22:43;145857.31;;;10.97;72.57
28354;BME280;15603;50.878;8.036;2023-08-31T11:25:12;145820.84;;;10.81;73.88
28354;BME280;15603;50.878;8.036;2023-08-31T11:27:40;145867.09;;;11.01;73.38
28354;BME280;15603;50.878;8.036;2023-08-31T11:30:17;145869.50;;;11.02;70.71
28354;BME280;15603;50.878;8.036;2023-08-31T11:32:50;145850.06;;;10.94;75.13
28354;BME280;15603;50.878;8.036;2023-08-31T11:35:18;145868.28;;;11.02;74.15
28354;BME280;15603;50.878;8.036;2023-08-31T11:37:50;145893.78;;;11.12;75.37
28354;BME280;15603;50.878;8.036;2023-08-31T11:40:18;145871.94;;;11.03;72.67
28354;BME280;15603;50.878;8.036;2023-08-31T11:42:45;145752.81;;;10.53;67.56
28354;BME280;15603;50.878;8.036;2023-08-31T11:45:14;145716.38;;;10.37;69.24
28354;BME280;15603;50.878;8.036;2023-08-31T11:47:42;145784.38;;;10.66;69.31
28354;BME280;15603;50.878;8.036;2023-08-31T11:50:11;145829.38;;;10.85;66.39
28354;BME280;15603;50.878;8.036;2023-08-31T11:52:40;145850.06;;;10.94;65.76
28354;BME280;15603;50.878;8.036;2023-08-31T11:55:15;145965.56;;;11.43;65.78
28354;BME280;15603;50.878;8.036;2023-08-31T11:57:52;146010.56;;;11.62;68.75
28354;BME280;15603;50.878;8.036;2023-08-31T12:00:22;146010.56;;;11.62;70.67
28354;BME280;15603;50.878;8.036;2023-08-31T12:02:59;146004.50;;;11.59;73.46
28354;BME280;15603;50.878;8.036;2023-08-31T12:05:27;145988.66;;;11.52;69.78
28354;BME280;15603;50.878;8.036;2023-08-31T12:07:55;145902.31;;;11.16;71.84
28354;BME280;15603;50.878;8.036;2023-08-31T12:10:24;145966.75;;;11.43;75.93
28354;BME280;15603;50.878;8.036;2023-08-31T12:12:51;146042.19;;;11.75;80.64
28354;BME280;15603;50.878;8.036;2023-08-31T12:15:20;146081.19;;;11.91;76.53
28354;BME280;15603;50.878;8.036;2023-08-31T12:17:49;146051.91;;;11.79;72.40
28354;BME280;15603;50.878;8.036;2023-08-31T12:20:26;146047.06;;;11.77;78.16
28354;BME280;15603;50.878;8.036;2023-08-31T12:22:54;146017.88;;;11.65;78.05
28354;BME280;15603;50.878;8.036;2023-08-31T12:25:21;146099.44;;;11.99;77.61
28354;BME280;15603;50.878;8.036;2023-08-31T12:27:49;146059.22;;;11.82;74.74
28354;BME280;15603;50.878;8.036;2023-08-31T12:30:17;146132.28;;;12.13;72.63
28354;BME280;15603;50.878;8.036;2023-08-31T12:32:44;146161.47;;;12.25;70.21
28354;BME280;15603;50.878;8.036;2023-08-31T12:35:11;146144.41;;;12.18;69.72
28354;BME280;15603;50.878;8.036;2023-08-31T12:37:38;146159.06;;;12.24;73.22
28354;BME280;15603;50.878;8.036;2023-08-31T12:40:06;146232.06;;;12.55;68.60
28354;BME280;15603;50.878;8.036;2023-08-31T12:42:34;146195.56;;;12.40;69.67
28354;BME280;15603;50.878;8.036;2023-08-31T12:45:01;146195.56;;;12.40;66.81
28354;BME280;15603;50.878;8.036;2023-08-31T12:47:29;146219.88;;;12.50;66.17
28354;BME280;15603;50.878;8.036;2023-08-31T12:49:56;146295.31;;;12.82;65.92
28354;BME280;15603;50.878;8.036;2023-08-31T12:52:24;146205.28;;;12.44;56.16
28354;BME280;15603;50.878;8.036;2023-08-31T12:54:51;146277.06;;;12.74;62.36
28354;BME280;15603;50.878;8.036;2023-08-31T12:57:18;146283.19;;;12.76;58.16
28354;BME280;15603;50.878;8.036;2023-08-31T12:59:45;146156.59;;;12.23;60.09
28354;BME280;15603;50.878;8.036;2023-08-31T13:02:15;146127.41;;;12.11;60.68
28354;BME280;15603;50.878;8.036;2023-08-31T13:04:42;146095.78;;;11.97;57.10
28354;BME280;15603;50.878;8.036;2023-08-31T13:07:09;146005.69;;;11.59;60.52
28354;BME280;15603;50.878;8.036;2023-08-31T13:09:36;145957.03;;;11.39;59.56
28354;BME280;15603;50.878;8.036;2023-08-31T13:12:03;145873.16;;;11.04;60.80
28354;BME280;15603;50.878;8.036;2023-08-31T13:14:30;145908.44;;;11.18;59.71